sensor_id;sensor_type;location;lat;lon;timestamp;pressure;altitude;pressure_sealevel;temperature;humidity
80118;BME280;69424;48.770;-1.564;2024-02-23T00:00:24;99467.46;;;6.39;78.93
80118;BME280;69424;48.770;-1.564;2024-02-23T00:01:18;99464.28;;;6.38;78.66
80118;BME280;69424;48.770;-1.564;2024-02-23T00:01:51;99467.28;;;6.38;78.88
80118;BME280;69424;48.770;-1.564;2024-02-23T00:02:25;99465.34;;;6.37;78.68
80118;BME280;69424;48.770;-1.564;2024-02-23T00:02:58;99467.63;;;6.38;79.17
80118;BME280;69424;48.770;-1.564;2024-02-23T00:03:33;99468.33;;;6.38;79.11
80118;BME280;69424;48.770;-1.564;2024-02-23T00:04:09;99467.45;;;6.38;79.02
80118;BME280;69424;48.770;-1.564;2024-02-23T00:04:43;99464.63;;;6.38;78.90
80118;BME280;69424;48.770;-1.564;2024-02-23T00:05:16;99467.45;;;6.38;79.01
80118;BME280;69424;48.770;-1.564;2024-02-23T00:05:49;99467.98;;;6.39;79.01
80118;BME280;69424;48.770;-1.564;2024-02-23T00:06:22;99466.77;;;6.39;79.05
80118;BME280;69424;48.770;-1.564;2024-02-23T00:07:00;99462.72;;;6.39;78.86
80118;BME280;69424;48.770;-1.564;2024-02-23T00:07:35;99466.23;;;6.39;79.03
80118;BME280;69424;48.770;-1.564;2024-02-23T00:08:08;99467.10;;;6.38;78.75
80118;BME280;69424;48.770;-1.564;2024-02-23T00:08:42;99468.67;;;6.38;78.73
80118;BME280;69424;48.770;-1.564;2024-02-23T00:09:15;99470.42;;;6.38;78.59
80118;BME280;69424;48.770;-1.564;2024-02-23T00:09:48;99468.67;;;6.37;79.01
80118;BME280;69424;48.770;-1.564;2024-02-23T00:10:22;99465.49;;;6.36;78.84
80118;BME280;69424;48.770;-1.564;2024-02-23T00:10:55;99467.96;;;6.35;79.19
80118;BME280;69424;48.770;-1.564;2024-02-23T00:11:28;99468.13;;;6.34;79.02
80118;BME280;69424;48.770;-1.564;2024-02-23T00:12:02;99468.47;;;6.33;79.02
80118;BME280;69424;48.770;-1.564;2024-02-23T00:12:36;99468.64;;;6.32;78.94
80118;BME280;69424;48.770;-1.564;2024-02-23T00:13:10;99468.81;;;6.31;79.22
80118;BME280;69424;48.770;-1.564;2024-02-23T00:13:43;99469.00;;;6.31;79.19
80118;BME280;69424;48.770;-1.564;2024-02-23T00:14:16;99474.27;;;6.30;79.48
80118;BME280;69424;48.770;-1.564;2024-02-23T00:14:51;99469.15;;;6.30;79.44
80118;BME280;69424;48.770;-1.564;2024-02-23T00:15:24;99469.31;;;6.29;79.59
80118;BME280;69424;48.770;-1.564;2024-02-23T00:15:58;99469.48;;;6.28;79.82
80118;BME280;69424;48.770;-1.564;2024-02-23T00:16:31;99470.55;;;6.27;79.92
80118;BME280;69424;48.770;-1.564;2024-02-23T00:17:04;99473.35;;;6.26;79.94
80118;BME280;69424;48.770;-1.564;2024-02-23T00:17:37;99473.68;;;6.25;79.91
80118;BME280;69424;48.770;-1.564;2024-02-23T00:18:12;99474.05;;;6.25;79.88
80118;BME280;69424;48.770;-1.564;2024-02-23T00:18:48;99472.11;;;6.25;79.94
80118;BME280;69424;48.770;-1.564;2024-02-23T00:19:21;99466.14;;;6.25;79.91
80118;BME280;69424;48.770;-1.564;2024-02-23T00:19:55;99468.59;;;6.25;79.89
80118;BME280;69424;48.770;-1.564;2024-02-23T00:20:29;99468.77;;;6.26;80.09
80118;BME280;69424;48.770;-1.564;2024-02-23T00:21:02;99469.67;;;6.27;79.83
80118;BME280;69424;48.770;-1.564;2024-02-23T00:21:36;99474.59;;;6.27;79.82
80118;BME280;69424;48.770;-1.564;2024-02-23T00:22:09;99477.39;;;6.27;79.63
80118;BME280;69424;48.770;-1.564;2024-02-23T00:22:43;99481.09;;;6.28;79.85
80118;BME280;69424;48.770;-1.564;2024-02-23T00:23:16;99479.69;;;6.28;79.86
80118;BME280;69424;48.770;-1.564;2024-02-23T00:23:49;99479.17;;;6.28;79.65
80118;BME280;69424;48.770;-1.564;2024-02-23T00:24:22;99478.98;;;6.28;79.64
80118;BME280;69424;48.770;-1.564;2024-02-23T00:24:56;99482.14;;;6.28;79.53
80118;BME280;69424;48.770;-1.564;2024-02-23T00:25:29;99483.71;;;6.28;79.53
80118;BME280;69424;48.770;-1.564;2024-02-23T00:26:02;99489.52;;;6.28;79.87
80118;BME280;69424;48.770;-1.564;2024-02-23T00:26:36;99485.65;;;6.28;79.76
80118;BME280;69424;48.770;-1.564;2024-02-23T00:27:09;99488.61;;;6.27;79.90
80118;BME280;69424;48.770;-1.564;2024-02-23T00:27:42;99485.27;;;6.25;79.78
80118;BME280;69424;48.770;-1.564;2024-02-23T00:28:15;99486.33;;;6.24;79.89
80118;BME280;69424;48.770;-1.564;2024-02-23T00:28:48;99490.35;;;6.22;79.97
80118;BME280;69424;48.770;-1.564;2024-02-23T00:29:21;99484.71;;;6.20;80.11
80118;BME280;69424;48.770;-1.564;2024-02-23T00:29:55;99485.94;;;6.19;80.23
80118;BME280;69424;48.770;-1.564;2024-02-23T00:30:29;99486.30;;;6.18;80.09
80118;BME280;69424;48.770;-1.564;2024-02-23T00:31:02;99479.61;;;6.18;80.22
80118;BME280;69424;48.770;-1.564;2024-02-23T00:31:38;99485.05;;;6.17;80.26
80118;BME280;69424;48.770;-1.564;2024-02-23T00:32:13;99485.58;;;6.17;80.37
80118;BME280;69424;48.770;-1.564;2024-02-23T00:32:47;99482.23;;;6.17;80.21
80118;BME280;69424;48.770;-1.564;2024-02-23T00:33:20;99476.10;;;6.17;80.57
80118;BME280;69424;48.770;-1.564;2024-02-23T00:33:53;99484.17;;;6.17;80.42
80118;BME280;69424;48.770;-1.564;2024-02-23T00:34:27;99487.87;;;6.18;80.26
80118;BME280;69424;48.770;-1.564;2024-02-23T00:35:00;99487.88;;;6.18;80.10
80118;BME280;69424;48.770;-1.564;2024-02-23T00:35:33;99488.40;;;6.18;80.15
80118;BME280;69424;48.770;-1.564;2024-02-23T00:36:07;99486.30;;;6.19;80.00
80118;BME280;69424;48.770;-1.564;2024-02-23T00:36:41;99481.20;;;6.19;79.96
80118;BME280;69424;48.770;-1.564;2024-02-23T00:37:14;99482.26;;;6.19;79.96
80118;BME280;69424;48.770;-1.564;2024-02-23T00:37:48;99482.09;;;6.19;80.11
80118;BME280;69424;48.770;-1.564;2024-02-23T00:38:21;99479.27;;;6.18;80.15
80118;BME280;69424;48.770;-1.564;2024-02-23T00:38:54;99475.94;;;6.19;80.03
80118;BME280;69424;48.770;-1.564;2024-02-23T00:39:27;99477.52;;;6.18;80.24
80118;BME280;69424;48.770;-1.564;2024-02-23T00:40:02;99475.23;;;6.18;79.87
80118;BME280;69424;48.770;-1.564;2024-02-23T00:40:37;99474.34;;;6.16;80.26
80118;BME280;69424;48.770;-1.564;2024-02-23T00:41:11;99473.11;;;6.15;80.11
80118;BME280;69424;48.770;-1.564;2024-02-23T00:41:44;99465.02;;;6.14;80.10
80118;BME280;69424;48.770;-1.564;2024-02-23T00:42:17;99463.61;;;6.14;80.03
80118;BME280;69424;48.770;-1.564;2024-02-23T00:42:50;99462.73;;;6.11;80.16
80118;BME280;69424;48.770;-1.564;2024-02-23T00:43:23;99465.52;;;6.10;80.00
80118;BME280;69424;48.770;-1.564;2024-02-23T00:43:57;99462.52;;;6.08;80.24
80118;BME280;69424;48.770;-1.564;2024-02-23T00:44:30;99461.46;;;6.07;80.03
80118;BME280;69424;48.770;-1.564;2024-02-23T00:45:05;99460.58;;;6.06;80.19
80118;BME280;69424;48.770;-1.564;2024-02-23T00:45:38;99463.20;;;6.05;80.26
80118;BME280;69424;48.770;-1.564;2024-02-23T00:46:11;99460.92;;;6.05;80.12
80118;BME280;69424;48.770;-1.564;2024-02-23T00:46:47;99457.60;;;6.05;80.27
80118;BME280;69424;48.770;-1.564;2024-02-23T00:47:21;99452.84;;;6.05;80.28
80118;BME280;69424;48.770;-1.564;2024-02-23T00:47:54;99455.66;;;6.06;80.13
80118;BME280;69424;48.770;-1.564;2024-02-23T00:48:27;99455.66;;;6.05;80.23
80118;BME280;69424;48.770;-1.564;2024-02-23T00:49:00;99455.33;;;6.06;80.31
80118;BME280;69424;48.770;-1.564;2024-02-23T00:49:34;99456.55;;;6.08;80.15
80118;BME280;69424;48.770;-1.564;2024-02-23T00:50:07;99453.40;;;6.08;80.09
80118;BME280;69424;48.770;-1.564;2024-02-23T00:50:41;99451.83;;;6.08;80.30
80118;BME280;69424;48.770;-1.564;2024-02-23T00:51:14;99452.00;;;6.09;80.06
80118;BME280;69424;48.770;-1.564;2024-02-23T00:51:47;99446.57;;;6.10;80.05
80118;BME280;69424;48.770;-1.564;2024-02-23T00:52:20;99446.75;;;6.10;80.24
80118;BME280;69424;48.770;-1.564;2024-02-23T00:52:54;99447.63;;;6.11;80.17
80118;BME280;69424;48.770;-1.564;2024-02-23T00:53:27;99447.80;;;6.12;80.43
80118;BME280;69424;48.770;-1.564;2024-02-23T00:54:01;99449.57;;;6.12;80.29
80118;BME280;69424;48.770;-1.564;2024-02-23T00:54:34;99446.94;;;6.11;80.24
80118;BME280;69424;48.770;-1.564;2024-02-23T00:55:07;99449.02;;;6.11;80.31
80118;BME280;69424;48.770;-1.564;2024-02-23T00:55:41;99447.98;;;6.10;80.21
80118;BME280;69424;48.770;-1.564;2024-02-23T00:56:14;99446.91;;;6.10;80.41
80118;BME280;69424;48.770;-1.564;2024-02-23T00:56:47;99445.86;;;6.09;80.65
80118;BME280;69424;48.770;-1.564;2024-02-23T00:57:24;99449.89;;;6.09;80.27
80118;BME280;69424;48.770;-1.564;2024-02-23T00:58:03;99440.41;;;6.08;80.56
80118;BME280;69424;48.770;-1.564;2024-02-23T00:58:36;99441.81;;;6.07;80.58
80118;BME280;69424;48.770;-1.564;2024-02-23T00:59:09;99444.43;;;6.07;80.45
80118;BME280;69424;48.770;-1.564;2024-02-23T00:59:42;99439.17;;;6.06;80.23
80118;BME280;69424;48.770;-1.564;2024-02-23T01:00:16;99437.41;;;6.05;80.32
80118;BME280;69424;48.770;-1.564;2024-02-23T01:00:49;99440.21;;;6.04;80.32
80118;BME280;69424;48.770;-1.564;2024-02-23T01:01:22;99439.50;;;6.03;80.33
80118;BME280;69424;48.770;-1.564;2024-02-23T01:01:55;99438.63;;;6.03;80.27
80118;BME280;69424;48.770;-1.564;2024-02-23T01:02:29;99440.20;;;6.03;80.42
80118;BME280;69424;48.770;-1.564;2024-02-23T01:03:02;99436.16;;;6.02;80.22
80118;BME280;69424;48.770;-1.564;2024-02-23T01:03:36;99437.39;;;6.02;80.42
80118;BME280;69424;48.770;-1.564;2024-02-23T01:04:09;99433.00;;;6.03;80.49
80118;BME280;69424;48.770;-1.564;2024-02-23T01:04:42;99433.00;;;6.03;80.36
80118;BME280;69424;48.770;-1.564;2024-02-23T01:05:16;99438.80;;;6.04;80.50
80118;BME280;69424;48.770;-1.564;2024-02-23T01:05:50;99436.35;;;6.05;80.56
80118;BME280;69424;48.770;-1.564;2024-02-23T01:06:23;99431.80;;;6.05;80.01
80118;BME280;69424;48.770;-1.564;2024-02-23T01:06:58;99432.52;;;6.06;80.23
80118;BME280;69424;48.770;-1.564;2024-02-23T01:07:31;99433.38;;;6.07;80.36
80118;BME280;69424;48.770;-1.564;2024-02-23T01:08:06;99433.73;;;6.07;80.11
80118;BME280;69424;48.770;-1.564;2024-02-23T01:08:39;99432.33;;;6.07;80.21
80118;BME280;69424;48.770;-1.564;2024-02-23T01:09:13;99433.38;;;6.08;80.27
80118;BME280;69424;48.770;-1.564;2024-02-23T01:09:46;99433.92;;;6.08;80.26
80118;BME280;69424;48.770;-1.564;2024-02-23T01:10:19;99431.63;;;6.08;80.13
80118;BME280;69424;48.770;-1.564;2024-02-23T01:10:53;99429.71;;;6.08;80.17
80118;BME280;69424;48.770;-1.564;2024-02-23T01:11:27;99432.86;;;6.09;80.45
80118;BME280;69424;48.770;-1.564;2024-02-23T01:12:00;99430.23;;;6.09;80.17
80118;BME280;69424;48.770;-1.564;2024-02-23T01:12:34;99429.36;;;6.08;80.29
80118;BME280;69424;48.770;-1.564;2024-02-23T01:13:08;99431.12;;;6.08;80.21
80118;BME280;69424;48.770;-1.564;2024-02-23T01:13:41;99427.24;;;6.08;80.21
80118;BME280;69424;48.770;-1.564;2024-02-23T01:14:15;99431.28;;;6.08;80.33
80118;BME280;69424;48.770;-1.564;2024-02-23T01:14:49;99431.11;;;6.08;80.11
80118;BME280;69424;48.770;-1.564;2024-02-23T01:15:22;99426.55;;;6.08;80.18
80118;BME280;69424;48.770;-1.564;2024-02-23T01:15:56;99426.90;;;6.08;80.08
80118;BME280;69424;48.770;-1.564;2024-02-23T01:16:30;99422.87;;;6.10;79.88
80118;BME280;69424;48.770;-1.564;2024-02-23T01:17:05;99418.30;;;6.09;79.70
80118;BME280;69424;48.770;-1.564;2024-02-23T01:17:39;99420.06;;;6.10;79.90
80118;BME280;69424;48.770;-1.564;2024-02-23T01:18:12;99419.02;;;6.11;79.89
80118;BME280;69424;48.770;-1.564;2024-02-23T01:18:46;99418.85;;;6.12;79.81
80118;BME280;69424;48.770;-1.564;2024-02-23T01:19:19;99419.37;;;6.13;79.48
80118;BME280;69424;48.770;-1.564;2024-02-23T01:19:53;99419.54;;;6.14;79.51
80118;BME280;69424;48.770;-1.564;2024-02-23T01:20:26;99421.49;;;6.15;79.34
80118;BME280;69424;48.770;-1.564;2024-02-23T01:21:00;99416.05;;;6.15;79.31
80118;BME280;69424;48.770;-1.564;2024-02-23T01:21:34;99420.44;;;6.15;79.24
80118;BME280;69424;48.770;-1.564;2024-02-23T01:22:07;99422.71;;;6.16;79.31
80118;BME280;69424;48.770;-1.564;2024-02-23T01:22:41;99423.07;;;6.16;79.23
80118;BME280;69424;48.770;-1.564;2024-02-23T01:23:14;99420.10;;;6.16;79.30
80118;BME280;69424;48.770;-1.564;2024-02-23T01:23:47;99412.90;;;6.16;79.15
80118;BME280;69424;48.770;-1.564;2024-02-23T01:24:21;99416.77;;;6.17;79.17
80118;BME280;69424;48.770;-1.564;2024-02-23T01:24:54;99417.83;;;6.17;79.21
80118;BME280;69424;48.770;-1.564;2024-02-23T01:25:28;99416.59;;;6.17;79.37
80118;BME280;69424;48.770;-1.564;2024-02-23T01:26:01;99417.29;;;6.17;79.23
80118;BME280;69424;48.770;-1.564;2024-02-23T01:26:36;99417.11;;;6.16;78.94
80118;BME280;69424;48.770;-1.564;2024-02-23T01:27:13;99416.77;;;6.16;78.94
80118;BME280;69424;48.770;-1.564;2024-02-23T01:27:46;99414.82;;;6.16;78.94
80118;BME280;69424;48.770;-1.564;2024-02-23T01:28:21;99410.62;;;6.15;79.09
80118;BME280;69424;48.770;-1.564;2024-02-23T01:28:55;99412.19;;;6.15;78.85
80118;BME280;69424;48.770;-1.564;2024-02-23T01:29:28;99408.15;;;6.15;79.04
80118;BME280;69424;48.770;-1.564;2024-02-23T01:30:01;99410.60;;;6.15;78.77
80118;BME280;69424;48.770;-1.564;2024-02-23T01:30:35;99406.21;;;6.15;78.93
80118;BME280;69424;48.770;-1.564;2024-02-23T01:31:09;99409.04;;;6.16;79.01
80118;BME280;69424;48.770;-1.564;2024-02-23T01:31:43;99405.86;;;6.16;78.84
80118;BME280;69424;48.770;-1.564;2024-02-23T01:32:16;99405.35;;;6.17;78.56
80118;BME280;69424;48.770;-1.564;2024-02-23T01:32:50;99408.69;;;6.17;78.92
80118;BME280;69424;48.770;-1.564;2024-02-23T01:33:24;99409.05;;;6.18;78.68
80118;BME280;69424;48.770;-1.564;2024-02-23T01:33:57;99404.48;;;6.18;78.95
80118;BME280;69424;48.770;-1.564;2024-02-23T01:34:30;99407.82;;;6.19;78.72
80118;BME280;69424;48.770;-1.564;2024-02-23T01:35:05;99401.51;;;6.19;78.83
80118;BME280;69424;48.770;-1.564;2024-02-23T01:35:39;99404.49;;;6.19;78.68
80118;BME280;69424;48.770;-1.564;2024-02-23T01:36:12;99400.80;;;6.19;78.88
80118;BME280;69424;48.770;-1.564;2024-02-23T01:36:46;99399.92;;;6.19;78.65
80118;BME280;69424;48.770;-1.564;2024-02-23T01:37:22;99406.41;;;6.18;78.45
80118;BME280;69424;48.770;-1.564;2024-02-23T01:37:57;99404.14;;;6.18;78.52
80118;BME280;69424;48.770;-1.564;2024-02-23T01:38:31;99404.30;;;6.17;78.67
80118;BME280;69424;48.770;-1.564;2024-02-23T01:39:06;99403.95;;;6.16;78.71
80118;BME280;69424;48.770;-1.564;2024-02-23T01:39:40;99406.40;;;6.16;78.75
80118;BME280;69424;48.770;-1.564;2024-02-23T01:40:14;99403.94;;;6.15;78.68
80118;BME280;69424;48.770;-1.564;2024-02-23T01:40:47;99406.22;;;6.15;78.45
80118;BME280;69424;48.770;-1.564;2024-02-23T01:41:21;99407.61;;;6.13;78.71
80118;BME280;69424;48.770;-1.564;2024-02-23T01:41:54;99405.69;;;6.12;78.63
80118;BME280;69424;48.770;-1.564;2024-02-23T01:42:27;99405.15;;;6.11;78.57
80118;BME280;69424;48.770;-1.564;2024-02-23T01:43:02;99407.96;;;6.11;78.45
80118;BME280;69424;48.770;-1.564;2024-02-23T01:43:36;99408.48;;;6.10;78.51
80118;BME280;69424;48.770;-1.564;2024-02-23T01:44:10;99406.37;;;6.10;78.33
80118;BME280;69424;48.770;-1.564;2024-02-23T01:44:43;99411.29;;;6.10;78.68
80118;BME280;69424;48.770;-1.564;2024-02-23T01:45:16;99408.66;;;6.10;78.49
80118;BME280;69424;48.770;-1.564;2024-02-23T01:45:50;99404.61;;;6.09;78.41
80118;BME280;69424;48.770;-1.564;2024-02-23T01:46:23;99408.83;;;6.10;78.55
80118;BME280;69424;48.770;-1.564;2024-02-23T01:46:57;99406.02;;;6.10;78.43
80118;BME280;69424;48.770;-1.564;2024-02-23T01:47:30;99409.52;;;6.10;78.76
80118;BME280;69424;48.770;-1.564;2024-02-23T01:48:04;99408.65;;;6.10;78.67
80118;BME280;69424;48.770;-1.564;2024-02-23T01:48:37;99414.98;;;6.11;78.51
80118;BME280;69424;48.770;-1.564;2024-02-23T01:49:11;99415.52;;;6.11;78.68
80118;BME280;69424;48.770;-1.564;2024-02-23T01:49:46;99410.94;;;6.12;78.80
80118;BME280;69424;48.770;-1.564;2024-02-23T01:50:20;99411.30;;;6.12;78.68
80118;BME280;69424;48.770;-1.564;2024-02-23T01:50:53;99408.84;;;6.12;78.75
80118;BME280;69424;48.770;-1.564;2024-02-23T01:51:27;99414.98;;;6.14;78.64
80118;BME280;69424;48.770;-1.564;2024-02-23T01:52:01;99410.41;;;6.13;78.73
80118;BME280;69424;48.770;-1.564;2024-02-23T01:52:36;99412.36;;;6.14;78.84
80118;BME280;69424;48.770;-1.564;2024-02-23T01:53:10;99410.59;;;6.14;78.79
80118;BME280;69424;48.770;-1.564;2024-02-23T01:53:45;99412.34;;;6.14;79.03
80118;BME280;69424;48.770;-1.564;2024-02-23T01:54:19;99400.05;;;6.13;78.82
80118;BME280;69424;48.770;-1.564;2024-02-23T01:54:53;99397.24;;;6.13;78.99
80118;BME280;69424;48.770;-1.564;2024-02-23T01:55:28;99399.18;;;6.13;79.04
80118;BME280;69424;48.770;-1.564;2024-02-23T01:56:04;99403.75;;;6.13;79.05
80118;BME280;69424;48.770;-1.564;2024-02-23T01:56:39;99401.13;;;6.12;79.08
80118;BME280;69424;48.770;-1.564;2024-02-23T01:57:14;99400.41;;;6.13;78.77
80118;BME280;69424;48.770;-1.564;2024-02-23T01:58:07;99406.91;;;6.14;79.04
80118;BME280;69424;48.770;-1.564;2024-02-23T01:58:41;99399.19;;;6.14;79.09
80118;BME280;69424;48.770;-1.564;2024-02-23T01:59:14;99394.28;;;6.16;79.17
80118;BME280;69424;48.770;-1.564;2024-02-23T01:59:48;99393.06;;;6.16;79.32
80118;BME280;69424;48.770;-1.564;2024-02-23T02:00:22;99397.11;;;6.18;79.25
80118;BME280;69424;48.770;-1.564;2024-02-23T02:00:58;99398.52;;;6.18;79.13
80118;BME280;69424;48.770;-1.564;2024-02-23T02:01:32;99398.18;;;6.20;79.59
80118;BME280;69424;48.770;-1.564;2024-02-23T02:02:08;99393.09;;;6.21;79.32
80118;BME280;69424;48.770;-1.564;2024-02-23T02:02:43;99393.45;;;6.22;79.52
80118;BME280;69424;48.770;-1.564;2024-02-23T02:03:17;99398.36;;;6.24;79.45
80118;BME280;69424;48.770;-1.564;2024-02-23T02:03:50;99396.80;;;6.25;79.40
80118;BME280;69424;48.770;-1.564;2024-02-23T02:04:24;99391.01;;;6.26;79.47
80118;BME280;69424;48.770;-1.564;2024-02-23T02:04:57;99394.52;;;6.26;79.37
80118;BME280;69424;48.770;-1.564;2024-02-23T02:05:32;99392.94;;;6.27;79.45
80118;BME280;69424;48.770;-1.564;2024-02-23T02:06:06;99392.41;;;6.27;79.52
80118;BME280;69424;48.770;-1.564;2024-02-23T02:06:41;99393.98;;;6.27;79.84
80118;BME280;69424;48.770;-1.564;2024-02-23T02:07:15;99391.88;;;6.27;79.45
80118;BME280;69424;48.770;-1.564;2024-02-23T02:07:52;99390.66;;;6.27;79.43
80118;BME280;69424;48.770;-1.564;2024-02-23T02:08:28;99386.09;;;6.27;79.99
80118;BME280;69424;48.770;-1.564;2024-02-23T02:09:02;99384.16;;;6.27;79.88
80118;BME280;69424;48.770;-1.564;2024-02-23T02:09:35;99386.61;;;6.26;79.95
80118;BME280;69424;48.770;-1.564;2024-02-23T02:10:09;99382.23;;;6.27;79.93
80118;BME280;69424;48.770;-1.564;2024-02-23T02:10:43;99382.59;;;6.27;80.36
80118;BME280;69424;48.770;-1.564;2024-02-23T02:11:18;99376.45;;;6.28;79.96
80118;BME280;69424;48.770;-1.564;2024-02-23T02:11:52;99378.20;;;6.29;79.79
80118;BME280;69424;48.770;-1.564;2024-02-23T02:12:27;99373.83;;;6.30;79.79
80118;BME280;69424;48.770;-1.564;2024-02-23T02:13:03;99371.71;;;6.30;79.44
80118;BME280;69424;48.770;-1.564;2024-02-23T02:13:37;99374.35;;;6.32;79.23
80118;BME280;69424;48.770;-1.564;2024-02-23T02:14:11;99374.88;;;6.32;79.24
80118;BME280;69424;48.770;-1.564;2024-02-23T02:14:44;99377.52;;;6.33;79.19
80118;BME280;69424;48.770;-1.564;2024-02-23T02:15:18;99374.36;;;6.34;78.82
80118;BME280;69424;48.770;-1.564;2024-02-23T02:15:51;99375.77;;;6.35;78.65
80118;BME280;69424;48.770;-1.564;2024-02-23T02:16:25;99372.45;;;6.37;79.02
80118;BME280;69424;48.770;-1.564;2024-02-23T02:16:58;99370.70;;;6.38;78.96
80118;BME280;69424;48.770;-1.564;2024-02-23T02:17:32;99369.64;;;6.38;78.72
80118;BME280;69424;48.770;-1.564;2024-02-23T02:18:10;99367.37;;;6.39;79.04
80118;BME280;69424;48.770;-1.564;2024-02-23T02:18:44;99364.73;;;6.39;79.04
80118;BME280;69424;48.770;-1.564;2024-02-23T02:19:19;99361.57;;;6.40;78.76
80118;BME280;69424;48.770;-1.564;2024-02-23T02:19:53;99355.78;;;6.40;79.00
80118;BME280;69424;48.770;-1.564;2024-02-23T02:20:32;99361.92;;;6.40;78.75
80118;BME280;69424;48.770;-1.564;2024-02-23T02:21:06;99363.33;;;6.39;78.82
80118;BME280;69424;48.770;-1.564;2024-02-23T02:21:40;99361.22;;;6.40;78.81
80118;BME280;69424;48.770;-1.564;2024-02-23T02:22:14;99361.58;;;6.41;78.85
80118;BME280;69424;48.770;-1.564;2024-02-23T02:22:47;99359.48;;;6.40;78.83
80118;BME280;69424;48.770;-1.564;2024-02-23T02:23:21;99356.84;;;6.41;79.23
80118;BME280;69424;48.770;-1.564;2024-02-23T02:23:54;99354.38;;;6.40;79.21
80118;BME280;69424;48.770;-1.564;2024-02-23T02:24:29;99359.81;;;6.41;78.97
80118;BME280;69424;48.770;-1.564;2024-02-23T02:25:03;99355.79;;;6.40;78.83
80118;BME280;69424;48.770;-1.564;2024-02-23T02:25:37;99354.38;;;6.42;78.92
80118;BME280;69424;48.770;-1.564;2024-02-23T02:26:11;99352.09;;;6.42;79.03
80118;BME280;69424;48.770;-1.564;2024-02-23T02:26:44;99351.58;;;6.44;78.84
80118;BME280;69424;48.770;-1.564;2024-02-23T02:27:22;99345.77;;;6.44;78.77
80118;BME280;69424;48.770;-1.564;2024-02-23T02:28:06;99344.19;;;6.45;78.87
80118;BME280;69424;48.770;-1.564;2024-02-23T02:28:40;99347.02;;;6.46;78.63
80118;BME280;69424;48.770;-1.564;2024-02-23T02:29:13;99341.21;;;6.47;78.51
80118;BME280;69424;48.770;-1.564;2024-02-23T02:29:50;99346.83;;;6.47;78.47
80118;BME280;69424;48.770;-1.564;2024-02-23T02:30:24;99339.83;;;6.48;78.42
80118;BME280;69424;48.770;-1.564;2024-02-23T02:31:01;99342.81;;;6.49;78.51
80118;BME280;69424;48.770;-1.564;2024-02-23T02:31:37;99342.98;;;6.50;78.56
80118;BME280;69424;48.770;-1.564;2024-02-23T02:32:13;99339.48;;;6.49;78.24
80118;BME280;69424;48.770;-1.564;2024-02-23T02:32:46;99335.27;;;6.51;78.26
80118;BME280;69424;48.770;-1.564;2024-02-23T02:33:21;99339.48;;;6.51;78.27
80118;BME280;69424;48.770;-1.564;2024-02-23T02:33:58;99334.38;;;6.50;78.16
80118;BME280;69424;48.770;-1.564;2024-02-23T02:34:34;99335.45;;;6.50;78.62
80118;BME280;69424;48.770;-1.564;2024-02-23T02:35:09;99337.54;;;6.50;78.12
80118;BME280;69424;48.770;-1.564;2024-02-23T02:35:43;99330.18;;;6.50;78.65
80118;BME280;69424;48.770;-1.564;2024-02-23T02:36:17;99333.84;;;6.49;78.19
80118;BME280;69424;48.770;-1.564;2024-02-23T02:36:57;99327.70;;;6.48;78.32
80118;BME280;69424;48.770;-1.564;2024-02-23T02:37:30;99324.73;;;6.48;78.29
80118;BME280;69424;48.770;-1.564;2024-02-23T02:38:04;99325.60;;;6.48;78.22
80118;BME280;69424;48.770;-1.564;2024-02-23T02:38:37;99323.65;;;6.48;78.35
80118;BME280;69424;48.770;-1.564;2024-02-23T02:39:12;99322.61;;;6.48;78.46
80118;BME280;69424;48.770;-1.564;2024-02-23T02:39:46;99325.95;;;6.49;78.38
80118;BME280;69424;48.770;-1.564;2024-02-23T02:40:20;99321.73;;;6.50;78.53
80118;BME280;69424;48.770;-1.564;2024-02-23T02:40:53;99325.95;;;6.51;78.44
80118;BME280;69424;48.770;-1.564;2024-02-23T02:41:28;99324.91;;;6.52;78.67
80118;BME280;69424;48.770;-1.564;2024-02-23T02:42:33;99320.52;;;6.53;78.54
80118;BME280;69424;48.770;-1.564;2024-02-23T02:43:06;99320.70;;;6.54;78.68
80118;BME280;69424;48.770;-1.564;2024-02-23T02:43:40;99319.81;;;6.55;78.62
80118;BME280;69424;48.770;-1.564;2024-02-23T02:44:15;99321.23;;;6.55;78.25
80118;BME280;69424;48.770;-1.564;2024-02-23T02:44:49;99321.93;;;6.56;78.42
80118;BME280;69424;48.770;-1.564;2024-02-23T02:45:23;99318.06;;;6.56;78.22
80118;BME280;69424;48.770;-1.564;2024-02-23T02:45:57;99319.13;;;6.57;78.15
80118;BME280;69424;48.770;-1.564;2024-02-23T02:46:57;99321.05;;;6.57;78.01
80118;BME280;69424;48.770;-1.564;2024-02-23T02:47:31;99318.95;;;6.58;77.86
80118;BME280;69424;48.770;-1.564;2024-02-23T02:48:05;99314.73;;;6.56;77.90
80118;BME280;69424;48.770;-1.564;2024-02-23T02:48:38;99318.42;;;6.57;78.00
80118;BME280;69424;48.770;-1.564;2024-02-23T02:49:12;99317.37;;;6.57;77.80
80118;BME280;69424;48.770;-1.564;2024-02-23T02:49:45;99313.15;;;6.57;78.18
80118;BME280;69424;48.770;-1.564;2024-02-23T02:50:19;99310.16;;;6.57;77.92
80118;BME280;69424;48.770;-1.564;2024-02-23T02:50:52;99312.97;;;6.57;77.98
80118;BME280;69424;48.770;-1.564;2024-02-23T02:51:26;99316.67;;;6.57;77.83
80118;BME280;69424;48.770;-1.564;2024-02-23T02:52:00;99320.88;;;6.57;77.89
80118;BME280;69424;48.770;-1.564;2024-02-23T02:52:33;99319.46;;;6.57;77.71
80118;BME280;69424;48.770;-1.564;2024-02-23T02:53:07;99320.36;;;6.57;78.06
80118;BME280;69424;48.770;-1.564;2024-02-23T02:53:41;99316.67;;;6.57;77.51
80118;BME280;69424;48.770;-1.564;2024-02-23T02:54:14;99313.31;;;6.57;77.86
80118;BME280;69424;48.770;-1.564;2024-02-23T02:54:49;99318.95;;;6.58;77.72
80118;BME280;69424;48.770;-1.564;2024-02-23T02:55:23;99325.63;;;6.58;77.68
80118;BME280;69424;48.770;-1.564;2024-02-23T02:55:56;99327.73;;;6.59;77.77
80118;BME280;69424;48.770;-1.564;2024-02-23T02:56:30;99322.65;;;6.60;77.85
80118;BME280;69424;48.770;-1.564;2024-02-23T02:57:03;99326.67;;;6.61;77.98
80118;BME280;69424;48.770;-1.564;2024-02-23T02:57:37;99330.19;;;6.62;77.72
80118;BME280;69424;48.770;-1.564;2024-02-23T02:58:11;99327.04;;;6.63;77.83
80118;BME280;69424;48.770;-1.564;2024-02-23T02:58:45;99326.34;;;6.64;78.13
80118;BME280;69424;48.770;-1.564;2024-02-23T02:59:20;99326.70;;;6.66;77.97
80118;BME280;69424;48.770;-1.564;2024-02-23T02:59:56;99319.14;;;6.66;77.98
80118;BME280;69424;48.770;-1.564;2024-02-23T03:00:29;99323.89;;;6.67;77.84
80118;BME280;69424;48.770;-1.564;2024-02-23T03:01:04;99331.27;;;6.69;77.65
80118;BME280;69424;48.770;-1.564;2024-02-23T03:01:37;99330.38;;;6.69;77.67